createdAt,value
2023-05-17T00:01:55.564Z,1.70
2023-05-17T00:04:42.266Z,1.60
2023-05-17T00:07:38.382Z,2.00
2023-05-17T00:10:14.004Z,1.60
2023-05-17T00:13:09.707Z,1.73
2023-05-17T00:16:05.615Z,1.90
2023-05-17T00:18:48.297Z,1.70
2023-05-17T00:21:47.566Z,1.40
2023-05-17T00:24:39.600Z,1.70
2023-05-17T00:27:16.060Z,1.90
2023-05-17T00:29:46.178Z,1.50
2023-05-17T00:32:31.817Z,1.63
2023-05-17T00:35:38.665Z,1.80
2023-05-17T00:38:09.857Z,2.07
2023-05-17T00:40:47.383Z,1.50
2023-05-17T00:43:48.058Z,1.97
2023-05-17T00:46:47.995Z,1.77
2023-05-17T00:49:32.687Z,1.70
2023-05-17T00:52:26.726Z,1.60
2023-05-17T00:55:13.269Z,1.73
2023-05-17T00:57:54.902Z,1.50
2023-05-17T01:00:41.486Z,1.60
2023-05-17T01:03:24.973Z,1.60
2023-05-17T01:06:04.336Z,1.80
2023-05-17T01:08:44.369Z,1.80
2023-05-17T01:11:33.869Z,2.10
2023-05-17T01:14:43.508Z,1.70
2023-05-17T01:17:25.506Z,1.70
2023-05-17T01:20:18.077Z,1.60
2023-05-17T01:23:19.394Z,1.80
2023-05-17T01:26:11.004Z,1.70
2023-05-17T01:28:51.410Z,1.80
2023-05-17T01:31:32.142Z,1.83
2023-05-17T01:34:13.246Z,1.90
2023-05-17T01:36:51.030Z,1.60
2023-05-17T01:39:47.340Z,1.40
2023-05-17T01:42:32.270Z,1.70
2023-05-17T01:45:46.043Z,1.80
2023-05-17T01:48:26.801Z,1.77
2023-05-17T01:51:02.871Z,1.70
2023-05-17T01:53:57.642Z,1.80
2023-05-17T01:56:43.100Z,1.80
2023-05-17T01:59:43.120Z,1.83
2023-05-17T02:02:52.015Z,2.17
2023-05-17T02:05:32.882Z,1.77
2023-05-17T02:08:29.898Z,1.80
2023-05-17T02:11:23.030Z,2.20
2023-05-17T02:14:02.141Z,1.87
2023-05-17T02:17:01.760Z,1.80
2023-05-17T02:20:13.939Z,1.70
2023-05-17T02:22:48.475Z,2.20
2023-05-17T02:25:30.245Z,1.90
2023-05-17T02:28:16.114Z,1.70
2023-05-17T02:30:53.586Z,1.70
2023-05-17T02:33:45.043Z,1.70
2023-05-17T02:36:46.178Z,1.80
2023-05-17T02:39:46.323Z,1.93
2023-05-17T02:42:32.687Z,2.10
2023-05-17T02:45:13.232Z,2.00
2023-05-17T02:47:44.984Z,2.10
2023-05-17T02:50:34.663Z,2.10
2023-05-17T02:53:17.591Z,1.87
2023-05-17T02:55:58.421Z,2.10
2023-05-17T02:58:41.373Z,1.93
2023-05-17T03:01:22.135Z,1.80
2023-05-17T03:04:32.066Z,2.03
2023-05-17T03:07:13.365Z,1.80
2023-05-17T03:09:58.878Z,1.60
2023-05-17T03:12:38.819Z,1.93
2023-05-17T03:15:20.784Z,1.90
2023-05-17T03:18:00.975Z,2.20
2023-05-17T03:20:33.524Z,2.10
2023-05-17T03:23:38.095Z,1.83
2023-05-17T03:26:32.908Z,2.23
2023-05-17T03:29:30.076Z,2.13
2023-05-17T03:32:01.381Z,2.00
2023-05-17T03:34:33.257Z,2.00
2023-05-17T03:37:12.179Z,1.73
2023-05-17T03:39:55.506Z,1.73
2023-05-17T03:42:36.391Z,2.13
2023-05-17T03:45:15.369Z,2.33
2023-05-17T03:47:46.253Z,2.00
2023-05-17T03:50:31.628Z,1.77
2023-05-17T03:53:12.759Z,1.80
2023-05-17T03:55:48.457Z,2.23
2023-05-17T03:58:34.088Z,1.97
2023-05-17T04:01:25.370Z,2.13
2023-05-17T04:04:14.303Z,1.90
2023-05-17T04:07:11.790Z,2.10
2023-05-17T04:10:03.288Z,2.47
2023-05-17T04:13:05.255Z,1.97
2023-05-17T04:16:07.528Z,2.10
2023-05-17T04:19:02.626Z,2.33
2023-05-17T04:21:43.667Z,2.27
2023-05-17T04:24:37.112Z,2.00
2023-05-17T04:27:14.488Z,2.37
2023-05-17T04:29:51.540Z,2.43
2023-05-17T04:32:32.394Z,2.50
2023-05-17T04:35:22.891Z,2.30
2023-05-17T04:38:02.700Z,2.43
2023-05-17T04:40:37.004Z,2.13
2023-05-17T04:43:44.171Z,2.30
2023-05-17T04:46:58.872Z,2.43
2023-05-17T04:49:41.236Z,2.30
2023-05-17T04:52:19.733Z,2.20
2023-05-17T04:55:10.727Z,2.30
2023-05-17T04:57:48.623Z,2.53
2023-05-17T05:00:31.751Z,2.37
2023-05-17T05:03:25.389Z,2.80
2023-05-17T05:06:05.640Z,2.60
2023-05-17T05:08:44.154Z,2.40
2023-05-17T05:11:25.998Z,2.43
2023-05-17T05:13:59.828Z,2.80
2023-05-17T05:16:31.674Z,2.63
2023-05-17T05:19:13.070Z,2.40
2023-05-17T05:22:05.013Z,2.93
2023-05-17T05:24:44.882Z,2.23
2023-05-17T05:27:41.679Z,2.60
2023-05-17T05:30:22.655Z,2.33
2023-05-17T05:32:57.546Z,2.40
2023-05-17T05:35:43.795Z,2.77
2023-05-17T05:38:40.297Z,2.80
2023-05-17T05:41:35.420Z,2.70
2023-05-17T05:44:54.032Z,3.40
2023-05-17T05:47:31.990Z,3.07
2023-05-17T05:50:08.258Z,2.90
2023-05-17T05:53:17.472Z,2.63
2023-05-17T05:56:39.892Z,2.97
2023-05-17T05:59:11.812Z,3.33
2023-05-17T06:01:43.142Z,3.20
2023-05-17T06:04:17.289Z,3.07
2023-05-17T06:06:51.297Z,2.77
2023-05-17T06:09:46.324Z,3.10
2023-05-17T06:12:32.633Z,2.90
2023-05-17T06:15:22.325Z,2.90
2023-05-17T06:18:11.645Z,3.00
2023-05-17T06:20:45.428Z,3.27
2023-05-17T06:23:34.184Z,3.20
2023-05-17T06:26:24.963Z,2.77
2023-05-17T06:29:08.876Z,3.10
2023-05-17T06:32:01.630Z,3.00
2023-05-17T06:34:51.924Z,2.97
2023-05-17T06:37:27.470Z,3.67
2023-05-17T06:40:15.992Z,3.20
2023-05-17T06:42:57.837Z,2.47
2023-05-17T06:46:17.890Z,3.37
2023-05-17T06:49:11.502Z,2.33
2023-05-17T06:52:00.214Z,3.00
2023-05-17T06:54:47.923Z,3.50
2023-05-17T06:57:32.231Z,3.40
2023-05-17T07:00:11.594Z,2.93
2023-05-17T07:03:19.431Z,3.33
2023-05-17T07:06:17.486Z,3.30
2023-05-17T07:08:57.917Z,2.93
2023-05-17T07:11:34.512Z,2.90
2023-05-17T07:14:04.699Z,2.90
2023-05-17T07:16:50.399Z,2.97
2023-05-17T07:19:31.375Z,2.97
2023-05-17T07:22:18.743Z,3.23
2023-05-17T07:25:18.444Z,3.50
2023-05-17T07:28:03.187Z,2.83
2023-05-17T07:30:48.392Z,3.20
2023-05-17T07:33:25.723Z,2.87
2023-05-17T07:36:30.997Z,2.87
2023-05-17T07:39:20.313Z,3.10
2023-05-17T07:41:57.867Z,2.93
2023-05-17T07:44:56.287Z,3.00
2023-05-17T07:47:30.388Z,3.03
2023-05-17T07:50:28.591Z,3.40
2023-05-17T07:53:10.157Z,2.77
2023-05-17T07:55:53.857Z,3.23
2023-05-17T07:58:34.646Z,3.10
2023-05-17T08:01:31.991Z,3.13
2023-05-17T08:04:06.643Z,3.00
2023-05-17T08:06:47.293Z,3.13
2023-05-17T08:09:48.016Z,3.07
2023-05-17T08:12:21.052Z,2.87
2023-05-17T08:15:10.081Z,3.33
2023-05-17T08:18:05.538Z,3.13
2023-05-17T08:20:51.200Z,2.93
2023-05-17T08:23:43.026Z,3.20
2023-05-17T08:26:41.159Z,3.20
2023-05-17T08:29:32.315Z,3.17
2023-05-17T08:32:09.876Z,2.87
2023-05-17T08:34:58.302Z,2.97
2023-05-17T08:37:46.079Z,3.07
2023-05-17T08:40:35.902Z,3.10
2023-05-17T08:43:34.930Z,3.10
2023-05-17T08:46:38.985Z,3.17
2023-05-17T08:49:23.935Z,3.20
2023-05-17T08:52:10.208Z,2.90
2023-05-17T08:55:00.835Z,2.90
2023-05-17T08:57:38.263Z,2.47
2023-05-17T09:00:28.852Z,2.40
2023-05-17T09:03:00.997Z,2.70
2023-05-17T09:05:31.615Z,3.33
2023-05-17T09:08:20.647Z,3.00
2023-05-17T09:10:57.409Z,2.50
2023-05-17T09:14:07.468Z,2.80
2023-05-17T09:16:47.264Z,2.60
2023-05-17T09:19:22.819Z,2.90
2023-05-17T09:22:24.858Z,2.90
2023-05-17T09:25:06.515Z,2.90
2023-05-17T09:28:12.313Z,2.20
2023-05-17T09:30:48.032Z,2.73
2023-05-17T09:33:51.119Z,2.50
2023-05-17T09:36:36.059Z,2.60
2023-05-17T09:39:25.949Z,2.80
2023-05-17T09:42:37.167Z,2.90
2023-05-17T09:45:35.611Z,2.43
2023-05-17T09:48:25.205Z,2.47
2023-05-17T09:51:34.522Z,2.80
2023-05-17T09:54:19.971Z,2.73
2023-05-17T09:57:20.383Z,2.87
2023-05-17T09:59:53.171Z,2.30
2023-05-17T10:02:35.831Z,2.70
2023-05-17T10:05:32.122Z,2.73
2023-05-17T10:08:27.971Z,2.60
2023-05-17T10:11:26.462Z,2.73
2023-05-17T10:14:25.588Z,2.93
2023-05-17T10:17:24.066Z,2.67
2023-05-17T10:20:15.394Z,2.83
2023-05-17T10:23:07.465Z,2.73
2023-05-17T10:26:03.200Z,2.80
2023-05-17T10:29:00.940Z,2.70
2023-05-17T10:31:37.476Z,2.83
2023-05-17T10:34:12.103Z,2.67
2023-05-17T10:36:57.975Z,2.50
2023-05-17T10:39:53.598Z,2.83
2023-05-17T10:42:37.496Z,2.50
2023-05-17T10:45:38.169Z,2.80
2023-05-17T10:48:36.791Z,3.10
2023-05-17T10:51:20.616Z,2.77
2023-05-17T10:54:16.784Z,2.77
2023-05-17T10:57:11.101Z,3.20
2023-05-17T11:00:03.450Z,2.90
2023-05-17T11:02:34.786Z,3.00
2023-05-17T11:05:24.377Z,2.77
2023-05-17T11:08:20.071Z,2.83
2023-05-17T11:11:15.482Z,2.73
2023-05-17T11:14:12.220Z,2.83
2023-05-17T11:16:59.944Z,3.37
2023-05-17T11:19:40.909Z,2.93
2023-05-17T11:22:24.549Z,2.90
2023-05-17T11:25:10.845Z,3.27
2023-05-17T11:28:02.488Z,2.87
2023-05-17T11:30:36.306Z,2.80
2023-05-17T11:33:40.551Z,2.83
2023-05-17T11:36:23.559Z,2.63
2023-05-17T11:39:22.856Z,2.40
2023-05-17T11:42:31.576Z,3.37
2023-05-17T11:45:14.840Z,2.60
2023-05-17T11:48:14.325Z,2.93
2023-05-17T11:51:07.302Z,3.00
2023-05-17T11:53:58.936Z,3.07
2023-05-17T11:56:52.173Z,2.80
2023-05-17T11:59:32.562Z,2.80
2023-05-17T12:02:30.611Z,2.93
2023-05-17T12:05:26.770Z,3.30
2023-05-17T12:08:18.158Z,2.97
2023-05-17T12:11:01.750Z,2.97
2023-05-17T12:13:44.563Z,3.00
2023-05-17T12:16:22.648Z,3.13
2023-05-17T12:19:08.350Z,2.67
2023-05-17T12:21:51.972Z,2.73
2023-05-17T12:24:40.356Z,3.03
2023-05-17T12:27:14.548Z,2.93
2023-05-17T12:29:50.556Z,2.77
2023-05-17T12:32:36.946Z,3.43
2023-05-17T12:35:18.137Z,2.87
2023-05-17T12:38:01.926Z,2.63
2023-05-17T12:41:00.381Z,2.77
2023-05-17T12:43:49.665Z,2.63
2023-05-17T12:46:32.555Z,2.63
2023-05-17T12:49:12.477Z,3.03
2023-05-17T12:52:14.223Z,2.80
2023-05-17T12:55:13.469Z,2.87
2023-05-17T12:57:59.665Z,2.57
2023-05-17T13:00:32.820Z,2.90
2023-05-17T13:03:05.829Z,2.37
2023-05-17T13:05:41.693Z,2.87
2023-05-17T13:08:50.258Z,2.83
2023-05-17T13:11:32.263Z,3.10
2023-05-17T13:14:11.250Z,2.80
2023-05-17T13:16:58.046Z,3.00
2023-05-17T13:19:35.141Z,2.70
2023-05-17T13:22:10.458Z,2.50
2023-05-17T13:25:04.825Z,3.00
2023-05-17T13:27:45.737Z,2.57
2023-05-17T13:30:52.518Z,2.90
2023-05-17T13:33:39.269Z,2.80
2023-05-17T13:36:13.624Z,2.50
2023-05-17T13:38:48.409Z,2.80
2023-05-17T13:41:35.759Z,2.73
2023-05-17T13:44:23.414Z,2.73
2023-05-17T13:47:32.731Z,2.83
2023-05-17T13:50:17.473Z,2.80
2023-05-17T13:53:14.682Z,2.97
2023-05-17T13:56:14.005Z,2.60
2023-05-17T13:59:21.065Z,2.60
2023-05-17T14:01:51.714Z,2.57
2023-05-17T14:04:42.843Z,3.33
2023-05-17T14:07:37.017Z,3.37
2023-05-17T14:10:22.238Z,2.67
2023-05-17T14:13:07.663Z,3.00
2023-05-17T14:16:05.158Z,3.00
2023-05-17T14:18:50.382Z,2.67
2023-05-17T14:21:45.619Z,2.80
2023-05-17T14:24:20.018Z,2.73
2023-05-17T14:27:12.444Z,2.60
2023-05-17T14:30:01.456Z,2.57
2023-05-17T14:32:49.626Z,2.90
2023-05-17T14:35:33.036Z,2.10
2023-05-17T14:38:20.821Z,2.60
2023-05-17T14:41:09.213Z,2.80
2023-05-17T14:43:50.436Z,2.60
2023-05-17T14:46:26.452Z,2.30
2023-05-17T14:49:07.111Z,2.27
2023-05-17T14:51:50.069Z,2.20
2023-05-17T14:55:02.976Z,2.37
2023-05-17T14:57:45.007Z,2.10
2023-05-17T15:00:23.844Z,2.33
2023-05-17T15:03:03.964Z,2.50
2023-05-17T15:05:44.218Z,2.00
2023-05-17T15:08:23.676Z,2.20
2023-05-17T15:11:41.501Z,2.23
2023-05-17T15:14:24.655Z,2.33
2023-05-17T15:17:05.658Z,1.90
2023-05-17T15:19:42.311Z,2.10
2023-05-17T15:22:58.731Z,2.20
2023-05-17T15:25:42.411Z,2.10
2023-05-17T15:28:17.824Z,2.27
2023-05-17T15:30:49.246Z,2.50
2023-05-17T15:33:45.291Z,2.03
2023-05-17T15:36:42.682Z,2.13
2023-05-17T15:39:36.868Z,2.20
2023-05-17T15:42:14.340Z,2.20
2023-05-17T15:45:20.427Z,2.10
2023-05-17T15:47:57.811Z,2.00
2023-05-17T15:50:33.754Z,2.13
2023-05-17T15:53:04.068Z,1.83
2023-05-17T15:55:51.137Z,1.93
2023-05-17T15:58:37.379Z,2.23
2023-05-17T16:01:27.892Z,2.20
2023-05-17T16:04:00.253Z,2.00
2023-05-17T16:07:04.164Z,1.93
2023-05-17T16:09:46.470Z,2.33
2023-05-17T16:12:59.422Z,2.00
2023-05-17T16:15:29.900Z,2.30
2023-05-17T16:18:14.817Z,2.13
2023-05-17T16:21:12.739Z,2.00
2023-05-17T16:24:04.694Z,2.00
2023-05-17T16:26:45.624Z,2.20
2023-05-17T16:29:46.355Z,2.10
2023-05-17T16:32:34.787Z,2.40
2023-05-17T16:35:12.872Z,2.40
2023-05-17T16:37:52.796Z,2.40
2023-05-17T16:40:29.393Z,2.47
2023-05-17T16:43:14.749Z,2.53
2023-05-17T16:45:58.999Z,2.10
2023-05-17T16:48:49.477Z,2.00
2023-05-17T16:51:42.874Z,2.20
2023-05-17T16:54:47.679Z,2.13
2023-05-17T16:57:31.004Z,2.00
2023-05-17T17:00:29.642Z,2.17
2023-05-17T17:03:12.955Z,2.57
2023-05-17T17:05:55.115Z,2.37
2023-05-17T17:08:53.748Z,2.10
2023-05-17T17:11:45.817Z,2.40
2023-05-17T17:14:43.578Z,2.10
2023-05-17T17:17:29.099Z,2.17
2023-05-17T17:20:15.899Z,1.90
2023-05-17T17:23:02.191Z,2.40
2023-05-17T17:26:14.289Z,2.27
2023-05-17T17:29:04.206Z,2.23
2023-05-17T17:31:41.755Z,2.27
2023-05-17T17:34:26.275Z,2.17
2023-05-17T17:37:01.498Z,2.20
2023-05-17T17:39:42.922Z,2.30
2023-05-17T17:42:22.961Z,2.17
2023-05-17T17:45:00.590Z,2.53
2023-05-17T17:47:53.111Z,2.10
2023-05-17T17:50:36.020Z,2.20
2023-05-17T17:53:19.534Z,2.30
2023-05-17T17:56:15.063Z,2.20
2023-05-17T17:58:57.677Z,2.40
2023-05-17T18:01:49.436Z,2.20
2023-05-17T18:04:35.604Z,2.50
2023-05-17T18:07:16.100Z,2.67
2023-05-17T18:10:10.418Z,2.40
2023-05-17T18:13:10.160Z,2.10
2023-05-17T18:15:58.435Z,2.50
2023-05-17T18:18:52.683Z,2.50
2023-05-17T18:21:43.837Z,2.40
2023-05-17T18:24:30.481Z,2.37
2023-05-17T18:27:25.212Z,2.17
2023-05-17T18:30:13.794Z,2.13
2023-05-17T18:33:07.537Z,2.20
2023-05-17T18:35:39.712Z,2.37
2023-05-17T18:38:26.158Z,2.47
2023-05-17T18:41:14.731Z,2.30
2023-05-17T18:44:02.117Z,2.27
2023-05-17T18:46:57.643Z,2.40
2023-05-17T18:49:45.397Z,2.33
2023-05-17T18:52:21.213Z,1.97
2023-05-17T18:55:03.892Z,2.63
2023-05-17T18:57:43.894Z,2.03
2023-05-17T19:00:24.680Z,2.07
2023-05-17T19:02:56.446Z,1.90
2023-05-17T19:05:45.394Z,2.27
2023-05-17T19:08:25.986Z,2.20
2023-05-17T19:11:14.075Z,2.30
2023-05-17T19:13:53.479Z,2.23
2023-05-17T19:16:23.967Z,2.40
2023-05-17T19:19:08.275Z,3.20
2023-05-17T19:21:49.413Z,2.80
2023-05-17T19:24:42.263Z,2.70
2023-05-17T19:27:52.403Z,2.50
2023-05-17T19:30:46.369Z,2.33
2023-05-17T19:33:17.761Z,2.60
2023-05-17T19:36:12.809Z,2.57
2023-05-17T19:39:10.526Z,2.70
2023-05-17T19:41:51.743Z,2.53
2023-05-17T19:44:51.937Z,2.80
2023-05-17T19:47:40.878Z,2.40
2023-05-17T19:50:17.225Z,2.20
2023-05-17T19:53:10.862Z,2.30
2023-05-17T19:55:51.312Z,2.20
2023-05-17T19:58:37.512Z,2.07
2023-05-17T20:01:18.119Z,2.20
2023-05-17T20:03:51.773Z,2.27
2023-05-17T20:06:34.883Z,2.10
2023-05-17T20:09:06.372Z,2.27
2023-05-17T20:11:43.346Z,2.60
2023-05-17T20:14:43.479Z,2.30
2023-05-17T20:17:27.265Z,2.60
2023-05-17T20:20:09.891Z,2.23
2023-05-17T20:22:55.716Z,2.30
2023-05-17T20:25:49.826Z,2.60
2023-05-17T20:28:42.396Z,2.50
2023-05-17T20:31:24.760Z,3.00
2023-05-17T20:34:23.285Z,2.40
2023-05-17T20:36:58.650Z,2.47
2023-05-17T20:39:36.331Z,2.70
2023-05-17T20:42:13.603Z,3.10
2023-05-17T20:45:04.022Z,2.77
2023-05-17T20:47:52.810Z,2.50
2023-05-17T20:50:37.591Z,2.80
2023-05-17T20:53:10.956Z,3.10
2023-05-17T20:56:10.593Z,2.70
2023-05-17T20:58:43.828Z,2.53
2023-05-17T21:01:37.722Z,2.90
2023-05-17T21:04:26.787Z,2.57
2023-05-17T21:07:14.805Z,2.70
2023-05-17T21:09:54.188Z,2.83
2023-05-17T21:12:27.660Z,2.60
2023-05-17T21:15:16.369Z,2.80
2023-05-17T21:17:59.275Z,2.97
2023-05-17T21:20:45.366Z,2.23
2023-05-17T21:23:17.337Z,2.53
2023-05-17T21:25:58.974Z,2.30
2023-05-17T21:28:32.600Z,2.40
2023-05-17T21:31:13.058Z,2.27
2023-05-17T21:34:18.053Z,2.60
2023-05-17T21:37:04.500Z,2.37
2023-05-17T21:39:53.916Z,2.27
2023-05-17T21:42:37.464Z,2.10
2023-05-17T21:45:23.522Z,2.53
2023-05-17T21:47:57.334Z,2.10
2023-05-17T21:50:40.384Z,2.67
2023-05-17T21:53:23.033Z,2.10
2023-05-17T21:56:26.534Z,2.00
2023-05-17T21:59:26.519Z,2.13
2023-05-17T22:02:14.010Z,2.10
2023-05-17T22:05:05.010Z,2.30
2023-05-17T22:07:59.862Z,2.63
2023-05-17T22:10:51.609Z,1.97
2023-05-17T22:13:49.675Z,2.33
2023-05-17T22:16:24.805Z,2.30
2023-05-17T22:19:12.205Z,2.70
2023-05-17T22:21:49.576Z,2.10
2023-05-17T22:25:08.144Z,2.17
2023-05-17T22:27:45.702Z,2.33
2023-05-17T22:30:48.127Z,2.27
2023-05-17T22:33:23.772Z,2.20
2023-05-17T22:36:17.657Z,2.50
2023-05-17T22:39:10.025Z,1.87
2023-05-17T22:42:16.589Z,2.13
2023-05-17T22:44:51.105Z,2.30
2023-05-17T22:47:40.560Z,2.30
2023-05-17T22:50:24.919Z,2.53
2023-05-17T22:53:27.020Z,2.17
2023-05-17T22:55:59.055Z,2.23
2023-05-17T22:58:42.267Z,2.00
2023-05-17T23:01:33.739Z,2.20
2023-05-17T23:04:24.042Z,2.33
2023-05-17T23:07:23.624Z,2.10
2023-05-17T23:10:32.950Z,2.20
2023-05-17T23:13:21.755Z,2.30
2023-05-17T23:15:58.552Z,2.07
2023-05-17T23:18:31.493Z,1.90
2023-05-17T23:21:25.106Z,2.10
2023-05-17T23:24:15.864Z,1.97
2023-05-17T23:26:55.349Z,1.90
2023-05-17T23:29:48.055Z,2.27
2023-05-17T23:32:32.837Z,2.33
2023-05-17T23:35:19.053Z,2.37
2023-05-17T23:38:10.570Z,1.97
2023-05-17T23:40:45.235Z,2.10
2023-05-17T23:43:36.490Z,2.10
2023-05-17T23:46:24.549Z,2.13
2023-05-17T23:49:23.546Z,2.37
2023-05-17T23:52:01.776Z,1.90
2023-05-17T23:54:47.041Z,2.10
2023-05-17T23:57:31.148Z,2.40
